Pagrindinis puslapis
METAR-TAF:

METAR-TAF

Oro uostai :

Japas, Mikronezija

platuma: 09-29N, ilguma: 138-05E, Aukštis: 28 m

Dabartinis oras

Ataskaita buvo paskelbta 24 minutes, ne 19:50 UTC
Ramus vėjas
Temperatūra 26°C
Drėgmė 94%
Slėgis 1009 hPa
Matomumas: 19.3 km
Išsisklaidę debesys ne aukštis 1600 ft
Išsisklaidę debesys ne aukštis 13000 ft
Su prošvaistėmis ne aukštis 30000 ft

METAR: PTYA 251950Z 00000KT 12SM SCT016 SCT130 BKN300 26/25 A2979 RMK SLP088 T02580253

Laikas: 06:14 (20:14 UTC)

Prognozė

Ataskaita buvo paskelbta 2 valandos ir 19 minutes, ne 17:55 UTC
Prognozė galioja nuo 25 metu 18 UTC su 26 metu 18 UTC
Vėjas 11 kt iš Rytų
Matomumas: 10 km
Išsisklaidę debesys ne aukštis 1600 ft
Išsisklaidę debesys ne aukštis 4000 ft
Su prošvaistėmis ne aukštis 10000 ft
Liūtis kaimynystėje
Laikinai
nuo 25 metu 18 UTC su 25 metu 22 UTC
Matomumas: 8.0 km
Su prošvaistėmis ne aukštis 1400 ft
Apsiniaukę ne aukštis 3000 ft
lietus

TAF: PTYA 251755Z 2518/2618 09011KT P6SM VCSH SCT016 SCT040 BKN100 TEMPO 2518/2522 5SM SHRA BKN014 OVC030

Orai ataskaitas ir orų prognozės (METAR, TAF).

turimą stotys yra geltonos ir raudonos taškus žemėlapyje.

Perkelti pele per norėdami pamatyti stoties vardą.

Tada spustelėkite, norėdami matyti oro stebėjimo ir prognozės.

Norėdami pakeisti žemėlapį: spustelėkite ant žalios mygtukų su juodo kryžiaus žemyn,; žalią mygtuką su brūkšneliu, jei norite nutolinti; arba žalių rodyklių gretimoms žemėlapius.


METAR-TAF: